Chandler Field Alexandria US
ICAO: KAXN
IATA: AXN
Category: Medium
Scheduled Services: No

Elevation: 1425 ft
TransAlt. 18000 ft.

Airport Communications:
ASOS:118.375
MINNEAPOLIS CNTR:126.1
PRINCETON RDO:122.6
CTAF/UNICOM:123

KAXN Zoom In..

If Map Doesn't Load, Click Here

Runways:

(A) RW 04 length 4098 ft width 75 ft
---- / hdg 45

(B) RW 13 length 5099 ft width 100 ft
---- / hdg 135

(C) RW 22 length 4098 ft width 75 ft
---- / hdg 225

(D) RW 31 length 5099 ft width 100 ft
ILS 110.50 / hdg 315

Location; KAXN
Day. 23 / Time. 07.53 Zulu
* Altimeter: 30.00
* Temperature: 11° c. 51.8°f.
* Wind from: 150° Speed 07 kn.
Dewpoint: 07° c.
Visibility: 10 Statute Miles.
Clouds: Clear (automated report).

KAXN 230753Z AUTO 15007KT 10SM CLR 11/07 A3000 RMK AO2 SLP159 T01110072


Wind From 150°
Speed 07 kn.

 
 
jpsmedia.com for Web Design worldairports.se 2018   terms of use